Airport ID:KEKS
Update Time (UTC):20/06/2019 09:24
Wind Speed (Knots):4
Wind Direction (Magnetic):100
Temperature (°C):4.8
Dew Point (°C):-2.5
Humidity (%):58.2
Altimeter (inHg):29.91
Density Altitude (Feet):
Visibility (Miles):10
Clouds (Hundreds of feet):BKN080 OVC090
Present Weather:
METAR:METAR KEKS 200920Z AUTO 11006KT 10SM SCT080 OVC090 04/M02 A2991 RMK AO2

The data displayed is for advisory purposes only and is not to be used for flight planning or operations.

This page is not automatically refreshed. Reload the page to see current data.